Terminal Aerodrome Forecast
Issued by NWS Quad Cities IA IL

Home | Current Version | Previous Version | Text Only | Print | Product List | Glossary On
Versions: 1 2 3 4 5 6 7 8 9 10 11 12 13 14 15 16 17 18 19 20 21
000
FTUS43 KDVN 261314 AAA
TAFMLI
TAF AMD
KMLI 261314Z 2613/2712 11006KT P6SM FEW024 BKN030 BKN120
     FM261400 13005KT P6SM VCTS BKN050CB
     FM261800 16008KT P6SM SCT050=

USA.gov is the U.S. government's official web portal to all federal, state and local government web resources and services.